Time;durP1;ratioP1;P1;durP2;ratioP2;P2;SDS_P1;SDS_P2;PMS_P1;PMS_P2;Temp;Humidity;BMP_temperature;BMP_pressure;BME280_temperature;BME280_humidity;BME280_pressure;Samples;Min_cycle;Max_cycle;Signal;HPM_P1;HPM_P2
2022/03/23 05:00:24;;;;;;;15.73;9.70;;;-0.90;99.90;;;;;;5965488;22;94393;-72
2022/03/23 05:02:50;;;;;;;17.40;10.18;;;-0.90;99.90;;;;;;4938722;28;93024;-72
2022/03/23 05:05:16;;;;;;;16.25;9.85;;;-1.00;99.90;;;;;;4938086;28;92084;-73
2022/03/23 05:07:42;;;;;;;20.73;10.98;;;-1.00;99.90;;;;;;4940308;28;92399;-74
2022/03/23 05:10:09;;;;;;;15.95;10.23;;;-1.00;99.90;;;;;;4940108;28;89179;-73
2022/03/23 05:12:39;;;;;;;15.88;10.35;;;-1.10;99.90;;;;;;4939625;28;89735;-73
2022/03/23 05:15:06;;;;;;;19.55;10.80;;;-1.10;99.90;;;;;;4938559;28;91378;-73
2022/03/23 05:17:32;;;;;;;19.23;10.48;;;-1.20;99.90;;;;;;4939161;28;90806;-73
2022/03/23 05:19:58;;;;;;;23.23;12.40;;;-1.10;99.90;;;;;;4938112;28;89231;-74
2022/03/23 05:22:24;;;;;;;22.40;13.18;;;-1.10;99.90;;;;;;4941999;28;89589;-75
2022/03/23 05:24:50;;;;;;;23.85;12.85;;;-1.20;99.90;;;;;;4940135;28;91782;-75
2022/03/23 05:27:15;;;;;;;25.67;13.20;;;-1.20;99.90;;;;;;4941970;28;89893;-74
2022/03/23 05:29:43;;;;;;;23.52;13.00;;;-1.20;99.90;;;;;;4941122;28;89354;-74
2022/03/23 05:32:16;;;;;;;20.08;11.82;;;-1.20;99.90;;;;;;4940978;28;90605;-74
2022/03/23 05:34:48;;;;;;;18.85;11.77;;;-1.20;99.90;;;;;;4941765;28;89405;-74
2022/03/23 05:37:16;;;;;;;20.38;10.93;;;-1.20;99.90;;;;;;4938856;28;90878;-74
2022/03/23 05:39:43;;;;;;;20.33;11.23;;;-1.20;99.90;;;;;;4939039;28;90294;-74
2022/03/23 05:42:12;;;;;;;17.92;10.65;;;-1.10;99.90;;;;;;4939047;28;90435;-74
2022/03/23 05:44:41;;;;;;;17.60;10.98;;;-1.10;99.90;;;;;;4939219;28;89414;-73
2022/03/23 05:47:06;;;;;;;19.00;10.68;;;-1.10;99.90;;;;;;4938576;28;89293;-74
2022/03/23 05:49:32;;;;;;;19.25;10.95;;;-1.10;99.90;;;;;;4939105;28;89259;-74
2022/03/23 05:51:58;;;;;;;20.63;10.88;;;-1.00;99.90;;;;;;4938979;28;89360;-74
2022/03/23 05:54:24;;;;;;;17.95;10.73;;;-1.00;99.90;;;;;;4938893;28;89329;-74
2022/03/23 05:56:50;;;;;;;16.00;10.57;;;-1.00;99.90;;;;;;4938991;28;89367;-74
2022/03/23 05:59:17;;;;;;;16.83;10.57;;;-0.90;99.90;;;;;;4937227;28;89260;-74
2022/03/23 06:01:43;;;;;;;20.65;10.40;;;-0.80;99.90;;;;;;4938167;28;90207;-75
2022/03/23 06:04:08;;;;;;;19.90;10.00;;;-0.80;99.90;;;;;;4938102;28;91493;-74
2022/03/23 06:06:34;;;;;;;15.07;10.18;;;-0.80;99.90;;;;;;4938246;28;90780;-74
2022/03/23 06:09:00;;;;;;;18.75;10.55;;;-0.70;99.90;;;;;;4938830;28;89246;-74
2022/03/23 06:11:25;;;;;;;18.45;10.68;;;-0.70;99.90;;;;;;4938273;28;89393;-74
2022/03/23 06:13:51;;;;;;;17.02;10.32;;;-0.50;99.90;;;;;;4941445;28;90286;-75
2022/03/23 06:16:17;;;;;;;17.83;10.73;;;-0.50;99.90;;;;;;4936781;28;92597;-74
2022/03/23 06:18:42;;;;;;;21.17;11.32;;;-0.40;99.90;;;;;;4938975;28;89298;-74
2022/03/23 06:21:08;;;;;;;16.20;9.98;;;-0.30;99.90;;;;;;4938955;28;89000;-75
2022/03/23 06:23:34;;;;;;;20.67;11.73;;;-0.30;99.90;;;;;;4938545;28;90528;-74
2022/03/23 06:26:01;;;;;;;17.50;10.60;;;-0.20;99.90;;;;;;4938304;28;89809;-74
2022/03/23 06:28:26;;;;;;;16.98;10.73;;;-0.10;99.90;;;;;;4938158;28;90709;-75
2022/03/23 06:30:52;;;;;;;17.02;10.80;;;0.00;99.90;;;;;;4938041;28;89351;-74
2022/03/23 06:33:19;;;;;;;19.40;12.63;;;0.10;99.90;;;;;;4937022;28;93082;-74
2022/03/23 06:35:45;;;;;;;20.17;12.55;;;0.20;99.90;;;;;;4938348;28;89216;-75
2022/03/23 06:38:12;;;;;;;19.15;12.00;;;0.40;99.90;;;;;;4939098;28;89241;-75
2022/03/23 06:40:37;;;;;;;19.02;12.15;;;0.70;99.90;;;;;;4937932;28;91269;-74
2022/03/23 06:43:03;;;;;;;21.33;12.15;;;0.70;99.90;;;;;;4938148;28;89315;-74
2022/03/23 06:45:29;;;;;;;22.08;12.48;;;0.90;99.90;;;;;;4938400;28;89082;-72
2022/03/23 06:48:05;;;;;;;18.98;11.88;;;0.90;99.90;;;;;;4939035;28;89321;-75
2022/03/23 06:50:31;;;;;;;20.75;12.88;;;1.00;99.90;;;;;;4936297;28;91080;-75
2022/03/23 06:52:56;;;;;;;22.65;12.18;;;1.00;99.90;;;;;;4937173;28;91058;-73
2022/03/23 06:55:22;;;;;;;17.23;12.07;;;1.10;99.90;;;;;;4938039;28;89425;-73
2022/03/23 06:57:47;;;;;;;20.38;12.98;;;1.10;99.90;;;;;;4938136;28;89237;-73
2022/03/23 07:00:13;;;;;;;20.75;12.43;;;1.20;99.90;;;;;;4937935;28;89149;-72
2022/03/23 07:02:49;;;;;;;16.88;11.27;;;1.30;99.90;;;;;;4937420;28;90492;-72
2022/03/23 07:05:17;;;;;;;20.98;12.32;;;1.30;99.90;;;;;;4938069;28;90243;-72
2022/03/23 07:09:31;;;;;;;19.77;13.05;;;1.40;99.90;;;;;;4937564;28;89262;-72
2022/03/23 07:10:30;;;;;;;21.73;12.18;;;1.50;99.90;;;;;;4936979;28;88930;-72
2022/03/23 07:12:57;;;;;;;19.85;12.55;;;1.60;99.90;;;;;;4937477;28;91542;-72
2022/03/23 07:15:23;;;;;;;18.35;11.55;;;1.80;99.90;;;;;;4937974;28;89148;-72
2022/03/23 07:17:49;;;;;;;16.88;11.30;;;1.90;99.90;;;;;;4937224;28;90217;-72
2022/03/23 07:20:14;;;;;;;18.75;12.32;;;2.00;99.90;;;;;;4937296;28;89886;-72
2022/03/23 07:22:40;;;;;;;22.15;12.98;;;2.20;99.90;;;;;;4937753;28;90406;-72
2022/03/23 07:25:06;;;;;;;18.50;12.30;;;2.40;99.90;;;;;;4937579;28;89376;-72
2022/03/23 07:27:31;;;;;;;19.15;12.65;;;2.60;99.90;;;;;;4937111;28;89207;-73
2022/03/23 07:29:57;;;;;;;19.88;12.32;;;2.70;99.90;;;;;;4937128;28;89392;-72
2022/03/23 07:32:23;;;;;;;19.23;12.70;;;2.90;99.90;;;;;;4935481;28;92240;-72
2022/03/23 07:34:48;;;;;;;21.05;12.85;;;3.10;99.90;;;;;;4937739;28;88779;-72
2022/03/23 07:37:15;;;;;;;18.80;11.65;;;3.20;99.90;;;;;;4938730;28;89811;-73
2022/03/23 07:39:40;;;;;;;16.67;11.38;;;3.40;99.90;;;;;;4940878;28;89244;-73
2022/03/23 07:42:06;;;;;;;21.15;12.05;;;3.50;99.90;;;;;;4940222;28;90423;-73
2022/03/23 07:44:34;;;;;;;21.52;12.07;;;3.70;99.90;;;;;;4943407;28;90688;-72
2022/03/23 07:47:01;;;;;;;21.75;13.60;;;3.80;99.90;;;;;;4962430;28;89205;-73
2022/03/23 07:49:26;;;;;;;20.25;12.50;;;4.00;99.90;;;;;;4957056;28;90172;-73
2022/03/23 07:51:52;;;;;;;19.67;12.05;;;4.20;99.90;;;;;;4940401;28;90420;-73
2022/03/23 07:54:17;;;;;;;18.25;12.65;;;4.30;99.90;;;;;;4940799;28;89657;-73
2022/03/23 07:56:43;;;;;;;23.05;12.85;;;4.50;99.90;;;;;;4940421;28;89262;-73
2022/03/23 07:59:09;;;;;;;20.25;12.23;;;4.70;99.90;;;;;;4941222;28;89978;-73
2022/03/23 08:01:35;;;;;;;18.98;12.20;;;4.80;99.90;;;;;;4939792;28;89623;-76
2022/03/23 08:04:01;;;;;;;22.85;13.43;;;5.00;99.90;;;;;;4940569;28;89705;-73
2022/03/23 08:06:27;;;;;;;19.58;12.38;;;5.20;99.90;;;;;;4939913;28;90169;-73
2022/03/23 08:08:52;;;;;;;19.27;13.40;;;5.40;99.90;;;;;;4940486;28;89242;-74
2022/03/23 08:11:18;;;;;;;23.35;12.43;;;5.60;99.90;;;;;;4940427;28;89833;-73
2022/03/23 08:13:44;;;;;;;18.88;12.75;;;5.70;99.90;;;;;;4940459;28;89845;-73
2022/03/23 08:16:10;;;;;;;20.70;13.02;;;5.90;99.90;;;;;;4939932;28;89541;-73
2022/03/23 08:18:36;;;;;;;22.92;13.30;;;6.00;99.90;;;;;;4940002;28;89637;-74
2022/03/23 08:21:02;;;;;;;19.63;12.85;;;6.20;99.90;;;;;;4939979;28;90048;-74
2022/03/23 08:23:30;;;;;;;20.23;12.85;;;6.30;99.90;;;;;;4939090;28;92721;-74
2022/03/23 08:25:56;;;;;;;21.83;13.27;;;6.60;99.90;;;;;;4940064;28;89225;-74
2022/03/23 08:28:21;;;;;;;23.20;13.90;;;6.80;99.90;;;;;;4940536;28;89681;-74
2022/03/23 08:30:47;;;;;;;19.38;13.25;;;7.00;99.90;;;;;;4939220;28;90277;-74
2022/03/23 08:33:13;;;;;;;22.75;13.80;;;7.10;99.90;;;;;;4939410;28;92123;-74
2022/03/23 08:35:39;;;;;;;20.35;13.57;;;7.20;99.40;;;;;;4937710;28;89374;-74
2022/03/23 08:38:05;;;;;;;24.45;14.15;;;7.30;99.10;;;;;;4937991;28;90126;-74
2022/03/23 08:40:31;;;;;;;27.85;14.38;;;7.40;99.30;;;;;;4939504;28;89838;-75
2022/03/23 08:42:58;;;;;;;24.77;13.88;;;7.40;99.50;;;;;;4939342;28;89788;-74
2022/03/23 08:45:24;;;;;;;26.45;14.70;;;7.70;99.40;;;;;;4939371;28;89247;-74
2022/03/23 08:47:50;;;;;;;29.17;15.25;;;7.80;98.80;;;;;;4939209;28;89234;-74
2022/03/23 08:50:16;;;;;;;28.98;15.63;;;7.90;98.20;;;;;;4938735;28;91523;-74
2022/03/23 08:52:42;;;;;;;27.73;15.63;;;8.00;98.30;;;;;;4937862;28;91459;-74
2022/03/23 08:55:10;;;;;;;31.55;15.90;;;8.20;97.30;;;;;;4937387;28;90326;-75
2022/03/23 08:57:36;;;;;;;33.05;16.25;;;8.30;97.20;;;;;;4939009;28;89808;-75
2022/03/23 09:00:07;;;;;;;25.33;15.43;;;8.30;97.60;;;;;;4939100;28;89335;-74
2022/03/23 09:02:32;;;;;;;30.55;15.52;;;8.50;96.70;;;;;;4936940;28;91991;-74
2022/03/23 09:04:58;;;;;;;28.92;15.60;;;8.60;96.20;;;;;;4939407;28;89290;-74
2022/03/23 09:07:24;;;;;;;29.38;15.15;;;8.70;95.80;;;;;;4938407;28;90200;-74
2022/03/23 09:09:49;;;;;;;24.27;15.80;;;8.90;95.10;;;;;;4939286;28;90404;-74
2022/03/23 09:12:15;;;;;;;25.98;15.30;;;9.00;95.00;;;;;;4937706;28;92788;-77
2022/03/23 09:14:40;;;;;;;28.10;16.27;;;9.10;95.30;;;;;;4939920;28;89417;-74
2022/03/23 09:17:06;;;;;;;28.45;15.07;;;9.30;93.20;;;;;;4932128;28;92993;-74
2022/03/23 09:19:33;;;;;;;30.08;16.33;;;9.40;93.00;;;;;;4936932;28;90682;-74
2022/03/23 09:21:59;;;;;;;26.70;15.35;;;9.60;92.40;;;;;;4936448;28;92275;-74
2022/03/23 09:24:25;;;;;;;29.98;16.02;;;9.80;93.20;;;;;;4938633;28;89415;-74
2022/03/23 09:26:52;;;;;;;25.80;15.60;;;9.80;93.00;;;;;;4937595;28;91179;-73
2022/03/23 09:29:18;;;;;;;25.10;15.75;;;9.90;92.00;;;;;;4938005;28;90042;-74
2022/03/23 09:31:43;;;;;;;22.73;16.27;;;10.10;91.50;;;;;;4938339;28;89394;-74
2022/03/23 09:34:09;;;;;;;26.27;16.13;;;10.20;91.70;;;;;;4938650;28;89182;-74
2022/03/23 09:39:19;;;;;;;23.23;15.57;;;10.50;90.20;;;;;;4937441;28;89704;-74
2022/03/23 09:41:45;;;;;;;29.40;16.35;;;10.70;90.20;;;;;;4937599;28;89792;-74
2022/03/23 09:44:11;;;;;;;27.15;16.65;;;10.70;90.00;;;;;;4936449;28;90559;-73
2022/03/23 09:46:37;;;;;;;31.23;16.20;;;10.90;88.30;;;;;;4937926;28;89899;-74
2022/03/23 09:49:05;;;;;;;32.33;16.88;;;11.00;88.50;;;;;;4937493;28;90074;-74
2022/03/23 09:51:33;;;;;;;26.42;16.73;;;11.00;87.20;;;;;;4938068;28;89934;-74
2022/03/23 09:54:00;;;;;;;25.55;16.60;;;11.20;85.80;;;;;;4938432;28;89932;-74
2022/03/23 09:56:25;;;;;;;28.33;16.80;;;11.30;86.60;;;;;;4938110;28;90259;-74
2022/03/23 09:58:51;;;;;;;32.90;16.67;;;11.50;84.90;;;;;;4937568;28;89920;-74
2022/03/23 10:01:51;;;;;;;29.63;16.40;;;11.60;83.70;;;;;;4937381;28;89601;-75
2022/03/23 10:04:20;;;;;;;29.02;16.13;;;11.70;83.00;;;;;;4936044;28;89255;-74
2022/03/23 10:07:14;;;;;;;26.50;15.63;;;11.80;81.40;;;;;;4937767;28;90786;-75
2022/03/23 10:10:17;;;;;;;32.40;16.42;;;12.00;78.80;;;;;;4932246;28;90978;-75
2022/03/23 10:13:20;;;;;;;28.23;14.88;;;12.20;79.70;;;;;;4936184;28;92859;-74
2022/03/23 10:16:20;;;;;;;27.23;15.80;;;12.30;76.60;;;;;;4935580;28;89670;-74
2022/03/23 10:18:51;;;;;;;23.58;15.10;;;12.50;76.10;;;;;;4935161;28;89337;-74
2022/03/23 10:21:21;;;;;;;27.48;15.93;;;12.70;75.60;;;;;;4936107;28;93143;-74
2022/03/23 10:24:00;;;;;;;24.70;14.60;;;12.90;72.50;;;;;;4936571;28;91756;-75
2022/03/23 10:26:27;;;;;;;24.65;14.98;;;12.90;72.90;;;;;;4938259;28;89588;-74
2022/03/23 10:28:53;;;;;;;27.08;15.10;;;13.00;71.80;;;;;;4937602;28;89709;-74
2022/03/23 10:31:24;;;;;;;20.08;14.85;;;13.10;69.70;;;;;;4936385;28;91574;-72
2022/03/23 10:34:07;;;;;;;22.70;14.68;;;13.30;70.70;;;;;;4937663;28;91997;-74
2022/03/23 10:36:33;;;;;;;22.92;14.73;;;13.40;69.10;;;;;;4935790;28;90922;-76
2022/03/23 10:38:59;;;;;;;24.02;14.35;;;13.50;66.90;;;;;;4937337;28;89420;-75
2022/03/23 10:41:26;;;;;;;23.85;13.85;;;13.70;69.40;;;;;;4937675;28;89905;-76
2022/03/23 10:43:52;;;;;;;19.13;14.23;;;13.90;66.90;;;;;;4938025;28;90214;-79
2022/03/23 10:46:17;;;;;;;19.45;14.48;;;14.10;65.20;;;;;;4935991;28;89368;-72
2022/03/23 10:48:59;;;;;;;21.25;14.70;;;14.20;67.40;;;;;;4937087;28;89551;-75
2022/03/23 10:51:29;;;;;;;18.08;13.88;;;14.30;64.50;;;;;;4937849;28;89322;-74
2022/03/23 10:53:55;;;;;;;22.48;13.63;;;14.50;64.20;;;;;;4938042;28;89690;-73
2022/03/23 10:56:32;;;;;;;18.33;12.27;;;14.50;62.70;;;;;;4937582;28;89289;-77
2022/03/23 10:59:15;;;;;;;17.90;12.80;;;14.60;61.50;;;;;;4936871;28;90184;-76
2022/03/23 11:02:04;;;;;;;17.73;12.32;;;14.80;59.50;;;;;;4937289;28;93141;-77
2022/03/23 11:04:53;;;;;;;15.85;12.80;;;15.10;59.10;;;;;;4962525;28;89946;-79
2022/03/23 11:07:29;;;;;;;20.90;13.15;;;15.20;59.50;;;;;;4948613;28;89016;-75
2022/03/23 11:15:46;;;;;;;18.13;12.80;;;15.20;60.00;;;;;;4941845;28;89823;-79
2022/03/23 11:18:20;;;;;;;21.88;13.77;;;15.50;60.00;;;;;;4941050;28;89876;-75
2022/03/23 11:20:51;;;;;;;19.67;13.68;;;15.70;62.20;;;;;;4941489;28;89706;-75
2022/03/23 11:23:20;;;;;;;18.70;12.75;;;16.00;60.90;;;;;;4940195;28;90087;-75
2022/03/23 11:25:49;;;;;;;17.75;13.77;;;16.00;57.50;;;;;;4938556;28;91344;-75
2022/03/23 11:28:15;;;;;;;19.90;13.55;;;16.00;57.80;;;;;;4939959;28;90458;-75
2022/03/23 11:30:45;;;;;;;18.73;13.38;;;16.00;57.10;;;;;;4939104;28;92971;-75
2022/03/23 11:33:12;;;;;;;18.83;13.63;;;16.10;56.50;;;;;;4940586;28;90030;-76
2022/03/23 11:35:46;;;;;;;21.92;13.05;;;16.30;57.30;;;;;;4941301;28;89359;-77
2022/03/23 11:38:12;;;;;;;17.75;13.50;;;16.50;58.40;;;;;;4939269;28;89629;-78
2022/03/23 11:40:42;;;;;;;18.50;13.90;;;16.70;58.70;;;;;;4942173;28;89839;-77
2022/03/23 11:43:13;;;;;;;19.70;13.65;;;16.70;58.80;;;;;;4939260;28;92641;-77
2022/03/23 11:45:43;;;;;;;26.75;13.45;;;16.70;56.90;;;;;;4939502;28;92054;-77
2022/03/23 11:48:42;;;;;;;18.35;13.90;;;16.70;58.20;;;;;;4941119;28;89317;-77
2022/03/23 11:51:18;;;;;;;16.70;13.18;;;16.80;57.50;;;;;;4940812;28;90221;-78
2022/03/23 11:53:55;;;;;;;21.33;13.90;;;16.80;55.80;;;;;;4940904;28;91508;-79
2022/03/23 11:56:32;;;;;;;18.70;12.93;;;17.00;58.40;;;;;;4940935;28;89909;-77
2022/03/23 11:59:21;;;;;;;16.77;12.93;;;17.10;54.90;;;;;;4940444;28;89537;-77
2022/03/23 12:01:47;;;;;;;22.20;14.25;;;17.00;55.40;;;;;;4940332;28;89642;-76
2022/03/23 12:04:25;;;;;;;16.77;13.57;;;17.10;55.40;;;;;;4940435;28;89717;-77
2022/03/23 12:07:01;;;;;;;18.15;13.90;;;17.20;56.90;;;;;;4938644;28;91630;-75
2022/03/23 12:09:32;;;;;;;20.23;13.73;;;17.40;55.50;;;;;;4940377;28;89201;-74
2022/03/23 12:11:59;;;;;;;18.92;14.15;;;17.60;58.90;;;;;;4940794;28;89177;-75
2022/03/23 12:14:26;;;;;;;17.45;13.25;;;17.70;55.50;;;;;;4941643;28;89336;-75
2022/03/23 12:16:52;;;;;;;18.10;14.32;;;17.90;55.80;;;;;;4939942;28;91551;-76
2022/03/23 12:19:28;;;;;;;18.30;14.00;;;18.00;53.90;;;;;;4940009;28;90221;-75
2022/03/23 12:22:05;;;;;;;20.17;14.18;;;17.80;55.40;;;;;;4940112;28;91882;-75
2022/03/23 12:24:52;;;;;;;18.83;13.85;;;17.80;53.20;;;;;;4939814;28;90786;-75
2022/03/23 12:27:39;;;;;;;16.25;13.70;;;18.00;53.30;;;;;;4936200;28;90224;-75
2022/03/23 12:30:22;;;;;;;18.85;13.73;;;18.20;55.00;;;;;;4939356;28;89513;-75
2022/03/23 12:32:47;;;;;;;16.52;12.70;;;18.60;54.50;;;;;;4939517;28;90747;-75
2022/03/23 12:35:13;;;;;;;18.13;12.82;;;18.80;53.00;;;;;;4940817;28;90435;-76
2022/03/23 12:37:41;;;;;;;17.35;12.57;;;18.90;51.60;;;;;;4941055;28;89900;-75
2022/03/23 12:40:13;;;;;;;17.95;12.32;;;19.10;48.30;;;;;;4941503;28;89214;-78
2022/03/23 12:42:44;;;;;;;17.70;11.93;;;19.20;47.30;;;;;;4940434;28;89334;-76
2022/03/23 12:45:16;;;;;;;13.52;11.73;;;18.90;48.40;;;;;;4939424;28;90677;-76
2022/03/23 12:47:54;;;;;;;17.83;12.07;;;19.00;47.60;;;;;;4939453;28;89555;-75
2022/03/23 12:59:21;;;;;;;16.58;10.60;;;19.80;47.80;;;;;;4940116;28;89179;-74
2022/03/23 13:01:52;;;;;;;12.02;8.88;;;19.70;46.70;;;;;;4939318;28;89187;-74
2022/03/23 13:04:42;;;;;;;10.43;8.52;;;19.70;43.80;;;;;;4941201;28;89201;-74
2022/03/23 13:07:29;;;;;;;11.10;8.18;;;20.10;42.20;;;;;;4940233;28;90121;-74
2022/03/23 13:09:56;;;;;;;13.23;9.20;;;19.90;41.40;;;;;;4939912;28;90197;-74
2022/03/23 13:12:26;;;;;;;11.23;9.23;;;20.00;45.30;;;;;;4940335;28;90215;-74
2022/03/23 13:14:52;;;;;;;12.43;8.90;;;20.10;44.70;;;;;;4940921;28;89646;-75
2022/03/23 13:17:22;;;;;;;14.50;9.60;;;20.30;43.10;;;;;;4940502;28;90205;-74
2022/03/23 13:19:55;;;;;;;13.25;9.38;;;20.10;42.60;;;;;;4939547;28;89787;-77
2022/03/23 13:22:34;;;;;;;15.23;9.60;;;20.50;43.20;;;;;;4938683;28;89693;-76
2022/03/23 13:25:05;;;;;;;16.38;10.80;;;20.40;43.30;;;;;;4940328;28;89220;-76
2022/03/23 13:27:31;;;;;;;16.80;9.88;;;20.20;43.20;;;;;;4939418;28;90409;-76
2022/03/23 13:30:03;;;;;;;14.82;9.73;;;20.30;45.50;;;;;;4939380;28;89399;-76
2022/03/23 13:32:33;;;;;;;12.57;10.00;;;20.50;43.80;;;;;;4939741;28;89413;-76
2022/03/23 13:34:59;;;;;;;13.40;9.25;;;20.90;44.40;;;;;;4938583;28;89301;-76
2022/03/23 13:37:25;;;;;;;14.15;10.57;;;20.80;44.80;;;;;;4939138;28;90243;-76
2022/03/23 13:39:51;;;;;;;12.40;9.95;;;20.80;44.70;;;;;;4939282;28;89739;-76
2022/03/23 13:45:09;;;;;;;15.25;9.38;;;20.70;41.70;;;;;;4939914;28;89327;-76
2022/03/23 13:47:44;;;;;;;12.02;9.13;;;21.00;42.30;;;;;;4939361;28;89158;-76
2022/03/23 13:50:12;;;;;;;12.57;9.32;;;20.90;42.00;;;;;;4939934;28;89624;-76
2022/03/23 13:52:38;;;;;;;13.10;9.23;;;20.90;40.30;;;;;;4937941;28;89215;-76
2022/03/23 13:55:05;;;;;;;14.88;9.65;;;20.90;43.40;;;;;;4938920;28;91876;-76
2022/03/23 13:57:31;;;;;;;12.77;10.20;;;21.00;41.50;;;;;;4939695;28;89854;-77
2022/03/23 13:59:57;;;;;;;14.13;9.88;;;21.10;43.40;;;;;;4937205;28;92314;-76
2022/03/23 14:02:24;;;;;;;12.15;10.35;;;21.00;44.90;;;;;;4938765;28;90289;-76
2022/03/23 14:04:49;;;;;;;14.23;10.82;;;21.40;40.70;;;;;;4938647;28;89318;-76
2022/03/23 14:07:15;;;;;;;13.63;9.25;;;21.60;41.10;;;;;;4938458;28;89325;-76
2022/03/23 14:09:41;;;;;;;11.10;9.25;;;21.40;44.80;;;;;;4939570;28;90024;-77
2022/03/23 14:12:11;;;;;;;15.65;10.52;;;21.30;40.90;;;;;;4939659;28;89195;-77
2022/03/23 14:14:39;;;;;;;12.35;9.57;;;21.20;41.00;;;;;;4937269;28;92644;-77
2022/03/23 14:17:16;;;;;;;91.38;19.58;;;21.10;41.60;;;;;;4939274;28;89599;-77
2022/03/23 14:19:43;;;;;;;12.38;10.48;;;21.20;39.90;;;;;;4937738;28;92956;-76
2022/03/23 14:22:13;;;;;;;27.90;9.77;;;21.80;42.50;;;;;;4948803;28;89298;-76
2022/03/23 14:24:38;;;;;;;27.52;14.40;;;22.80;39.30;;;;;;4962320;28;89234;-76
2022/03/23 14:27:45;;;;;;;12.77;9.55;;;23.80;38.70;;;;;;4948279;28;90295;-76
2022/03/23 14:30:17;;;;;;;10.60;9.23;;;24.80;36.70;;;;;;4918481;28;89951;-77
2022/03/23 14:32:57;;;;;;;16.70;11.05;;;25.70;34.40;;;;;;4919434;28;89329;-76
2022/03/23 14:35:40;;;;;;;15.27;10.07;;;26.40;34.90;;;;;;4929941;28;90452;-76
2022/03/23 14:38:25;;;;;;;10.57;9.48;;;26.80;36.00;;;;;;4936856;28;92353;-76
2022/03/23 14:40:56;;;;;;;13.60;8.80;;;27.50;35.30;;;;;;4941187;28;89186;-76
2022/03/23 14:43:41;;;;;;;10.90;9.25;;;28.80;31.10;;;;;;4943534;28;89344;-77
2022/03/23 14:46:47;;;;;;;11.18;8.80;;;28.40;31.10;;;;;;4939065;28;88881;-76
2022/03/23 14:49:14;;;;;;;12.93;9.20;;;28.60;30.00;;;;;;4900754;28;92572;-77
2022/03/23 14:51:42;;;;;;;10.85;9.38;;;28.90;33.00;;;;;;4939792;28;89228;-77
2022/03/23 14:54:09;;;;;;;13.88;9.73;;;29.10;31.60;;;;;;4939477;28;90261;-77
2022/03/23 14:56:37;;;;;;;12.90;9.68;;;28.90;29.80;;;;;;4940235;28;91571;-77
2022/03/23 14:59:03;;;;;;;10.40;9.38;;;28.10;31.80;;;;;;4939136;28;90049;-74
2022/03/23 15:01:30;;;;;;;12.45;9.48;;;27.80;29.90;;;;;;4938055;28;89823;-73
2022/03/23 15:03:56;;;;;;;11.15;9.32;;;27.90;30.60;;;;;;4943762;28;89156;-72
2022/03/23 15:14:35;;;;;;;12.38;9.32;;;28.80;29.60;;;;;;4939378;28;89265;-76
2022/03/23 15:17:01;;;;;;;12.25;8.57;;;29.50;27.50;;;;;;4938207;28;89870;-77
2022/03/23 15:19:27;;;;;;;10.15;9.13;;;28.70;29.90;;;;;;4939994;28;91003;-77
2022/03/23 15:21:53;;;;;;;10.02;9.02;;;29.40;28.60;;;;;;4939271;28;89962;-73
2022/03/23 15:24:18;;;;;;;11.52;8.70;;;29.30;29.50;;;;;;4938404;28;89238;-74
2022/03/23 15:26:45;;;;;;;10.05;8.35;;;29.40;28.90;;;;;;4938269;28;88988;-73
2022/03/23 15:29:11;;;;;;;12.40;8.98;;;29.70;27.60;;;;;;4938288;28;92609;-73
2022/03/23 15:31:37;;;;;;;9.20;8.30;;;30.00;29.70;;;;;;4937789;28;89747;-74
2022/03/23 15:34:03;;;;;;;10.18;8.82;;;30.10;28.80;;;;;;4938138;28;89296;-74
2022/03/23 15:36:30;;;;;;;12.73;8.52;;;30.70;27.40;;;;;;4938112;28;88887;-73
2022/03/23 15:38:55;;;;;;;10.60;8.20;;;32.40;25.90;;;;;;4938347;28;89377;-73
2022/03/23 15:41:21;;;;;;;9.23;8.32;;;31.80;27.30;;;;;;4937751;28;90914;-73
2022/03/23 15:43:52;;;;;;;12.80;8.70;;;31.90;26.30;;;;;;4937730;28;89812;-73
2022/03/23 15:46:20;;;;;;;8.75;7.93;;;30.90;27.80;;;;;;4937831;28;89675;-73
2022/03/23 15:48:50;;;;;;;10.25;8.10;;;30.50;27.30;;;;;;4937542;28;89941;-73
2022/03/23 15:51:17;;;;;;;9.75;8.75;;;30.60;28.80;;;;;;4936324;28;91427;-74
2022/03/23 15:53:44;;;;;;;13.60;9.07;;;31.40;27.40;;;;;;4938307;28;89684;-74
2022/03/23 15:56:11;;;;;;;9.93;8.88;;;31.60;27.60;;;;;;4938737;28;89338;-74
2022/03/23 15:58:37;;;;;;;10.18;8.05;;;30.90;28.00;;;;;;4939217;28;90240;-74
2022/03/23 16:01:03;;;;;;;12.82;8.50;;;31.70;27.40;;;;;;4941028;28;89852;-74
2022/03/23 16:03:29;;;;;;;9.88;8.85;;;31.90;27.30;;;;;;4941561;28;89223;-74
2022/03/23 16:05:55;;;;;;;11.55;8.57;;;32.00;26.50;;;;;;4941647;28;89342;-77
2022/03/23 16:08:22;;;;;;;9.63;8.13;;;32.30;26.50;;;;;;4941016;28;91045;-74
2022/03/23 16:10:49;;;;;;;10.23;9.00;;;31.10;26.90;;;;;;4940509;28;90885;-73
2022/03/23 16:13:15;;;;;;;12.23;8.82;;;29.90;26.80;;;;;;4941114;28;89547;-74
2022/03/23 16:15:41;;;;;;;10.93;8.07;;;28.50;28.70;;;;;;4940894;28;90125;-74
2022/03/23 16:18:06;;;;;;;15.88;9.40;;;28.10;29.10;;;;;;4941251;28;89239;-74
2022/03/23 16:20:32;;;;;;;9.40;8.40;;;28.20;27.70;;;;;;4940325;28;89471;-74
2022/03/23 16:22:59;;;;;;;11.73;9.23;;;27.80;30.00;;;;;;4941463;28;89255;-74
2022/03/23 16:25:25;;;;;;;10.88;8.15;;;26.90;30.30;;;;;;4941192;28;89040;-74
2022/03/23 16:27:54;;;;;;;15.50;8.68;;;26.30;31.60;;;;;;4940717;28;90145;-73
2022/03/23 16:30:22;;;;;;;8.82;7.93;;;25.10;33.70;;;;;;4940757;28;89649;-73
2022/03/23 16:32:52;;;;;;;16.02;8.20;;;23.60;33.70;;;;;;4940620;28;90131;-73
2022/03/23 16:35:18;;;;;;;13.52;8.15;;;22.20;38.40;;;;;;4941161;28;89351;-73
2022/03/23 16:37:45;;;;;;;11.98;8.30;;;21.20;38.40;;;;;;4940255;28;89473;-74
2022/03/23 16:40:22;;;;;;;11.40;7.95;;;20.20;41.10;;;;;;4941250;28;89305;-74
2022/03/23 16:42:50;;;;;;;13.88;8.15;;;19.50;41.80;;;;;;4941126;28;89232;-74
2022/03/23 16:45:16;;;;;;;7.82;7.00;;;18.90;45.50;;;;;;4941263;28;89495;-75
2022/03/23 16:47:43;;;;;;;9.25;8.30;;;18.40;46.00;;;;;;4940449;28;91784;-77
2022/03/23 16:50:10;;;;;;;10.63;7.78;;;18.00;45.50;;;;;;4944537;28;89890;-75
2022/03/23 16:52:37;;;;;;;11.35;6.95;;;17.60;47.20;;;;;;4942869;28;89381;-75
2022/03/23 16:55:03;;;;;;;9.68;7.22;;;17.20;48.50;;;;;;4941660;28;91483;-75
2022/03/23 16:57:31;;;;;;;9.27;7.15;;;16.90;48.50;;;;;;4942472;28;91467;-77
2022/03/23 16:59:59;;;;;;;10.02;6.43;;;16.60;48.60;;;;;;4944261;28;89704;-76
2022/03/23 17:02:24;;;;;;;12.57;8.25;;;16.20;50.10;;;;;;4945055;28;89327;-76
2022/03/23 17:13:05;;;;;;;10.15;6.75;;;15.10;52.40;;;;;;4941466;28;89256;-77
2022/03/23 17:15:31;;;;;;;9.57;6.53;;;14.80;52.90;;;;;;4940345;28;91899;-77
2022/03/23 17:17:56;;;;;;;8.88;6.25;;;14.50;53.80;;;;;;4939135;28;92942;-74
2022/03/23 17:20:22;;;;;;;8.15;6.18;;;14.30;53.70;;;;;;4940345;28;89640;-77
2022/03/23 17:22:48;;;;;;;7.25;5.95;;;14.00;54.40;;;;;;4937718;28;90269;-78
2022/03/23 17:25:15;;;;;;;8.73;6.30;;;13.80;55.40;;;;;;4939870;28;89226;-77
2022/03/23 17:27:42;;;;;;;7.28;5.63;;;13.50;56.00;;;;;;4938338;28;91660;-78
2022/03/23 17:30:09;;;;;;;8.70;5.88;;;13.20;57.60;;;;;;4940433;28;89341;-77
2022/03/23 17:32:35;;;;;;;9.15;6.40;;;12.90;58.50;;;;;;4940139;28;89352;-78
2022/03/23 17:35:01;;;;;;;8.15;6.90;;;12.60;60.50;;;;;;4938985;28;92361;-78
2022/03/23 17:37:27;;;;;;;10.05;6.95;;;12.50;61.60;;;;;;4938246;28;92998;-77
2022/03/23 17:39:56;;;;;;;11.18;6.82;;;12.30;62.90;;;;;;4940311;28;89331;-77
2022/03/23 17:42:22;;;;;;;11.80;8.35;;;12.00;64.10;;;;;;4950932;28;89250;-78
2022/03/23 17:44:48;;;;;;;11.13;8.80;;;11.80;66.00;;;;;;4965557;28;89019;-76
2022/03/23 17:47:16;;;;;;;12.57;8.73;;;11.60;67.30;;;;;;4953859;28;92009;-77
2022/03/23 17:49:45;;;;;;;14.82;10.45;;;11.40;68.60;;;;;;4940617;28;91278;-75
2022/03/23 17:52:12;;;;;;;15.32;10.40;;;11.20;69.30;;;;;;4939179;28;89405;-78
2022/03/23 17:54:39;;;;;;;15.82;10.77;;;11.00;70.70;;;;;;4938941;28;90345;-78
2022/03/23 17:57:05;;;;;;;15.35;9.55;;;10.80;72.20;;;;;;4937761;28;90076;-77
2022/03/23 17:59:32;;;;;;;12.40;9.25;;;10.60;72.50;;;;;;4939669;28;89741;-78
2022/03/23 18:01:58;;;;;;;13.43;9.10;;;10.40;72.40;;;;;;4940072;28;89255;-78
2022/03/23 18:04:23;;;;;;;13.25;8.35;;;10.30;72.00;;;;;;4942778;28;89888;-78
2022/03/23 18:06:50;;;;;;;18.20;10.30;;;10.20;71.70;;;;;;4939025;28;92703;-73
2022/03/23 18:09:16;;;;;;;18.27;9.68;;;10.00;71.30;;;;;;4939561;28;92076;-80
2022/03/23 18:11:43;;;;;;;17.02;9.85;;;9.90;71.70;;;;;;4940280;28;90220;-77
2022/03/23 18:14:09;;;;;;;13.48;9.48;;;9.70;72.20;;;;;;4939966;28;89727;-76
2022/03/23 18:16:42;;;;;;;15.02;9.27;;;9.60;73.10;;;;;;4940165;28;89304;-74
2022/03/23 18:19:09;;;;;;;17.98;10.02;;;9.50;74.70;;;;;;4940701;28;89346;-75